Time;durP1;ratioP1;P1;durP2;ratioP2;P2;SDS_P1;SDS_P2;PMS_P1;PMS_P2;Temp;Humidity;BMP_temperature;BMP_pressure;BME280_temperature;BME280_humidity;BME280_pressure;Samples;Min_cycle;Max_cycle;Signal;HPM_P1;HPM_P2
2023/04/10 00:01:21;;;;;;;;;;;;;;;3.36;100.00;100794.50;5042231;28;20310;-72
2023/04/10 00:03:47;;;;;;;;;;;;;;;3.35;100.00;100791.13;5051667;28;19965;-70
2023/04/10 00:06:12;;;;;;;;;;;;;;;3.31;100.00;100791.19;5037647;28;19958;-70
2023/04/10 00:08:37;;;;;;;;;;;;;;;3.27;100.00;100782.75;5050899;28;19939;-73
2023/04/10 00:11:02;;;;;;;;;;;;;;;3.23;100.00;100784.50;5046784;28;20515;-71
2023/04/10 00:13:28;;;;;;;;;;;;;;;3.22;100.00;100790.47;5058846;28;19921;-72
2023/04/10 00:15:53;;;;;;;;;;;;;;;3.21;100.00;100781.16;5068506;28;19913;-69
2023/04/10 00:18:18;;;;;;;;;;;;;;;3.20;100.00;100774.38;5048566;28;20376;-70
2023/04/10 00:20:44;;;;;;;;;;;;;;;3.16;100.00;100775.28;5041410;28;19954;-69
2023/04/10 00:23:09;;;;;;;;;;;;;;;3.18;100.00;100775.25;5060480;28;19913;-67
2023/04/10 00:25:34;;;;;;;;;;;;;;;3.20;100.00;100778.59;5053484;28;20060;-66
2023/04/10 00:27:59;;;;;;;;;;;;;;;3.18;100.00;100780.34;5052732;28;19916;-65
2023/04/10 00:30:25;;;;;;;;;;;;;;;3.13;100.00;100784.66;5045317;28;19924;-65
2023/04/10 00:32:50;;;;;;;;;;;;;;;3.12;100.00;100783.78;5063443;28;19928;-67
2023/04/10 00:35:15;;;;;;;;;;;;;;;3.12;100.00;100781.25;5068544;28;20342;-68
2023/04/10 00:37:41;;;;;;;;;;;;;;;3.13;100.00;100782.94;5052569;28;19990;-69
2023/04/10 00:40:06;;;;;;;;;;;;;;;3.07;100.00;100780.47;5057280;28;20008;-68
2023/04/10 00:42:31;;;;;;;;;;;;;;;3.04;100.00;100786.44;5056032;28;19963;-67
2023/04/10 00:44:57;;;;;;;;;;;;;;;3.05;100.00;100792.34;5052134;28;19939;-67
2023/04/10 00:47:22;;;;;;;;;;;;;;;3.04;100.00;100783.91;5052892;28;19939;-68
2023/04/10 00:49:47;;;;;;;;;;;;;;;3.02;100.00;100787.31;5051682;28;19921;-67
2023/04/10 00:52:13;;;;;;;;;;;;;;;3.00;100.00;100792.44;5044161;28;19917;-68
2023/04/10 00:54:39;;;;;;;;;;;;;;;2.98;100.00;100795.84;5051477;28;20432;-70
2023/04/10 00:57:04;;;;;;;;;;;;;;;2.92;100.00;100793.38;5052209;28;19931;-71
2023/04/10 00:59:30;;;;;;;;;;;;;;;2.89;100.00;100796.78;5066399;28;20356;-70
2023/04/10 01:01:55;;;;;;;;;;;;;;;2.94;100.00;100802.66;5041080;28;19927;-69
2023/04/10 01:04:21;;;;;;;;;;;;;;;2.90;100.00;100803.53;5049578;28;19921;-66
2023/04/10 01:06:50;;;;;;;;;;;;;;;2.82;100.00;100810.44;5045293;28;21009;-69
2023/04/10 01:09:19;;;;;;;;;;;;;;;2.79;100.00;100810.44;5049518;28;20018;-68
2023/04/10 01:11:57;;;;;;;;;;;;;;;2.75;100.00;100817.25;5055211;28;20085;-65
2023/04/10 01:14:34;;;;;;;;;;;;;;;2.72;100.00;100804.59;5049842;28;19917;-69
2023/04/10 01:17:06;;;;;;;;;;;;;;;2.70;100.00;100794.44;5047729;28;19913;-69
2023/04/10 01:19:50;;;;;;;;;;;;;;;2.71;100.00;100795.28;5050807;28;19917;-69
2023/04/10 01:22:16;;;;;;;;;;;;;;;2.71;100.00;100795.28;5054246;28;20288;-70
2023/04/10 01:24:59;;;;;;;;;;;;;;;2.73;100.00;100796.13;5056071;28;19916;-70
2023/04/10 01:27:35;;;;;;;;;;;;;;;2.71;100.00;100785.13;5057770;28;20346;-71
2023/04/10 01:30:01;;;;;;;;;;;;;;;2.74;100.00;100780.88;5073678;28;20323;-70
2023/04/10 01:32:28;;;;;;;;;;;;;;;2.73;100.00;100781.72;5053992;28;20414;-70
2023/04/10 01:34:56;;;;;;;;;;;;;;;2.68;100.00;100777.53;5052696;28;19920;-71
2023/04/10 01:37:23;;;;;;;;;;;;;;;2.67;100.00;100773.34;5051536;28;19927;-70
2023/04/10 01:39:50;;;;;;;;;;;;;;;2.69;100.00;100772.47;5052402;28;19920;-71
2023/04/10 01:42:17;;;;;;;;;;;;;;;2.73;100.00;100774.09;5053045;28;19932;-71
2023/04/10 01:44:43;;;;;;;;;;;;;;;2.84;100.00;100775.66;5039754;28;20002;-71
2023/04/10 01:47:08;;;;;;;;;;;;;;;2.80;100.00;100768.94;5050171;28;20321;-69
2023/04/10 01:49:34;;;;;;;;;;;;;;;2.80;100.00;100768.94;5049398;28;19917;-69
2023/04/10 01:52:00;;;;;;;;;;;;;;;2.80;100.00;100763.88;5056025;28;20315;-69
2023/04/10 01:54:26;;;;;;;;;;;;;;;2.83;100.00;100762.13;5051720;28;19917;-68
2023/04/10 01:56:51;;;;;;;;;;;;;;;2.78;100.00;100756.28;5051426;28;19924;-69
2023/04/10 01:59:17;;;;;;;;;;;;;;;2.78;100.00;100753.72;5053173;28;19990;-69
2023/04/10 02:01:42;;;;;;;;;;;;;;;2.87;100.00;100748.53;5041433;28;19917;-70
2023/04/10 02:04:07;;;;;;;;;;;;;;;2.84;100.00;100747.72;5049807;28;20007;-70
2023/04/10 02:06:32;;;;;;;;;;;;;;;2.77;100.00;100749.50;5045387;28;19916;-71
2023/04/10 02:09:06;;;;;;;;;;;;;;;2.71;100.00;100752.94;5050386;28;20070;-70
2023/04/10 02:11:37;;;;;;;;;;;;;;;2.67;100.00;100753.00;5054150;28;19920;-70
2023/04/10 02:14:04;;;;;;;;;;;;;;;2.64;100.00;100745.41;5070003;28;20379;-70
2023/04/10 02:16:30;;;;;;;;;;;;;;;2.60;100.00;100738.69;5047306;28;19916;-70
2023/04/10 02:18:57;;;;;;;;;;;;;;;2.61;100.00;100740.38;5049712;28;19913;-70
2023/04/10 02:21:22;;;;;;;;;;;;;;;2.59;100.00;100740.38;5059759;28;20332;-69
2023/04/10 02:23:47;;;;;;;;;;;;;;;2.59;100.00;100737.84;5075828;28;20011;-70
2023/04/10 02:26:12;;;;;;;;;;;;;;;2.57;100.00;100740.41;5056374;28;19962;-70
2023/04/10 02:28:39;;;;;;;;;;;;;;;2.57;100.00;100740.41;5086772;28;20011;-69
2023/04/10 02:31:04;;;;;;;;;;;;;;;2.53;100.00;100733.69;5063273;28;20338;-69
2023/04/10 02:33:29;;;;;;;;;;;;;;;2.53;100.00;100741.31;5070594;28;19913;-69
2023/04/10 02:35:55;;;;;;;;;;;;;;;2.52;100.00;100751.50;5066273;28;19917;-69
2023/04/10 02:38:20;;;;;;;;;;;;;;;2.59;100.00;100748.00;5059724;28;19913;-70
2023/04/10 02:40:46;;;;;;;;;;;;;;;2.53;100.00;100748.91;5049984;28;19920;-70
2023/04/10 02:43:11;;;;;;;;;;;;;;;2.50;100.00;100743.03;5058249;28;20007;-69
2023/04/10 02:45:36;;;;;;;;;;;;;;;2.53;100.00;100745.53;5049138;28;19923;-69
2023/04/10 02:48:01;;;;;;;;;;;;;;;2.51;100.00;100749.78;5087225;28;19944;-69
2023/04/10 02:50:28;;;;;;;;;;;;;;;2.49;100.00;100734.56;5047492;28;20439;-69
2023/04/10 02:52:54;;;;;;;;;;;;;;;2.53;100.00;100738.75;5050961;28;19921;-70
2023/04/10 02:55:19;;;;;;;;;;;;;;;2.55;100.00;100731.94;5069802;28;19917;-69
2023/04/10 02:57:45;;;;;;;;;;;;;;;2.62;100.00;100739.50;5059677;28;19923;-69
2023/04/10 03:00:10;;;;;;;;;;;;;;;2.62;100.00;100726.78;5038463;28;20019;-69
2023/04/10 03:02:36;;;;;;;;;;;;;;;2.66;100.00;100733.53;5034006;28;19912;-69
2023/04/10 03:05:01;;;;;;;;;;;;;;;2.66;100.00;100723.38;5052730;28;19979;-69
2023/04/10 03:07:26;;;;;;;;;;;;;;;2.72;100.00;100715.69;5062978;28;20351;-70
2023/04/10 03:09:51;;;;;;;;;;;;;;;2.75;100.00;100715.63;5063979;28;21495;-70
2023/04/10 03:12:17;;;;;;;;;;;;;;;2.78;100.00;100720.69;5075125;28;19920;-69
2023/04/10 03:14:42;;;;;;;;;;;;;;;2.80;100.00;100708.78;5068247;28;20379;-70
2023/04/10 03:17:07;;;;;;;;;;;;;;;2.81;100.00;100713.03;5058687;28;19946;-69
2023/04/10 03:19:32;;;;;;;;;;;;;;;2.80;100.00;100707.97;5064110;28;19978;-69
2023/04/10 03:21:58;;;;;;;;;;;;;;;2.81;100.00;100707.13;5035733;28;19963;-69
2023/04/10 03:24:23;;;;;;;;;;;;;;;2.75;100.00;100700.38;5056744;28;19916;-70
2023/04/10 03:26:48;;;;;;;;;;;;;;;2.71;100.00;100698.75;5054728;28;19925;-70
2023/04/10 03:29:17;;;;;;;;;;;;;;;2.69;100.00;100690.31;5056163;28;19920;-70
2023/04/10 03:31:42;;;;;;;;;;;;;;;2.69;100.00;100691.16;5031013;28;19921;-71
2023/04/10 03:34:08;;;;;;;;;;;;;;;2.74;100.00;100693.63;5066609;28;20023;-71
2023/04/10 03:36:33;;;;;;;;;;;;;;;2.69;100.00;100688.63;5066312;28;19924;-71
2023/04/10 03:38:58;;;;;;;;;;;;;;;2.70;100.00;100687.75;5074297;28;19964;-70
2023/04/10 03:41:24;;;;;;;;;;;;;;;2.74;100.00;100683.47;5053128;28;19947;-71
2023/04/10 03:43:49;;;;;;;;;;;;;;;2.80;100.00;100683.38;5071118;28;19916;-70
2023/04/10 03:46:15;;;;;;;;;;;;;;;2.81;100.00;100684.25;5069727;28;19923;-70
2023/04/10 03:48:40;;;;;;;;;;;;;;;2.83;100.00;100679.97;5073972;28;19942;-70
2023/04/10 03:51:05;;;;;;;;;;;;;;;2.84;100.00;100685.03;5063671;28;20034;-68
2023/04/10 03:53:34;;;;;;;;;;;;;;;2.90;100.00;100689.19;5070506;28;20065;-69
2023/04/10 03:56:00;;;;;;;;;;;;;;;2.95;100.00;100686.59;5065283;28;19944;-69
2023/04/10 03:58:25;;;;;;;;;;;;;;;2.96;100.00;100694.19;5066838;28;19981;-69
2023/04/10 04:00:50;;;;;;;;;;;;;;;2.94;100.00;100690.00;5061334;28;20319;-69
2023/04/10 04:03:15;;;;;;;;;;;;;;;2.93;100.00;100701.00;5074813;28;20009;-69
2023/04/10 04:05:40;;;;;;;;;;;;;;;3.05;100.00;100696.63;5067556;28;19927;-69
2023/04/10 04:08:06;;;;;;;;;;;;;;;3.14;100.00;100698.19;5066538;28;20007;-70
2023/04/10 04:10:31;;;;;;;;;;;;;;;3.12;100.00;100699.09;5052616;28;19924;-69
2023/04/10 04:12:56;;;;;;;;;;;;;;;3.15;100.00;100699.03;5084530;28;19916;-69
2023/04/10 04:15:22;;;;;;;;;;;;;;;3.15;100.00;100699.03;5054976;28;19978;-70
2023/04/10 04:17:47;;;;;;;;;;;;;;;3.11;100.00;100695.69;5056365;28;20331;-69
2023/04/10 04:20:13;;;;;;;;;;;;;;;3.09;100.00;100699.09;5049005;28;19920;-69
2023/04/10 04:22:38;;;;;;;;;;;;;;;3.07;100.00;100697.41;5072885;28;19967;-69
2023/04/10 04:25:07;;;;;;;;;;;;;;;3.17;100.00;100703.22;5061469;28;20382;-69
2023/04/10 04:27:32;;;;;;;;;;;;;;;3.30;100.00;100709.00;5087943;28;19999;-69
2023/04/10 04:29:57;;;;;;;;;;;;;;;3.26;100.00;100714.97;5065120;28;20015;-69
2023/04/10 04:32:23;;;;;;;;;;;;;;;3.23;100.00;100709.94;5049089;28;19969;-70
2023/04/10 04:34:48;;;;;;;;;;;;;;;3.23;100.00;100715.84;5061117;28;19928;-69
2023/04/10 04:37:13;;;;;;;;;;;;;;;3.17;100.00;100710.84;5049255;28;20332;-70
2023/04/10 04:39:38;;;;;;;;;;;;;;;3.28;100.00;100707.34;5070225;28;19974;-69
2023/04/10 04:42:03;;;;;;;;;;;;;;;3.30;100.00;100701.34;5066650;28;20263;-69
2023/04/10 04:44:29;;;;;;;;;;;;;;;3.28;100.00;100700.53;5043288;28;19974;-69
2023/04/10 04:46:54;;;;;;;;;;;;;;;3.23;100.00;100699.75;5068722;28;19917;-69
2023/04/10 04:49:19;;;;;;;;;;;;;;;3.24;100.00;100691.28;5041118;28;19916;-70
2023/04/10 04:51:44;;;;;;;;;;;;;;;3.29;100.00;100701.38;5044993;28;19939;-69
2023/04/10 04:54:10;;;;;;;;;;;;;;;3.26;100.00;100701.41;5047775;28;19932;-70
2023/04/10 04:56:35;;;;;;;;;;;;;;;3.17;100.00;100699.84;5053412;28;20025;-70
2023/04/10 04:59:00;;;;;;;;;;;;;;;3.17;100.00;100694.75;5046655;28;19921;-69
2023/04/10 05:01:25;;;;;;;;;;;;;;;3.10;100.00;100704.19;5049882;28;19970;-70
2023/04/10 05:03:50;;;;;;;;;;;;;;;3.07;100.00;100701.69;5049913;28;19976;-70
2023/04/10 05:06:17;;;;;;;;;;;;;;;3.04;100.00;100699.19;5052642;28;20019;-70
2023/04/10 05:08:42;;;;;;;;;;;;;;;3.06;100.00;100698.31;5051753;28;20338;-68
2023/04/10 05:11:07;;;;;;;;;;;;;;;3.18;100.00;100696.44;5049906;28;19920;-70
2023/04/10 05:13:33;;;;;;;;;;;;;;;3.24;100.00;100704.00;5056745;28;19920;-70
2023/04/10 05:15:58;;;;;;;;;;;;;;;3.26;100.00;100699.69;5062030;28;19925;-70
2023/04/10 05:18:23;;;;;;;;;;;;;;;3.33;100.00;100700.47;5050192;28;20305;-70
2023/04/10 05:20:48;;;;;;;;;;;;;;;3.43;100.00;100691.81;5047446;28;19929;-70
2023/04/10 05:23:14;;;;;;;;;;;;;;;3.59;100.00;100694.97;5058637;28;19981;-70
2023/04/10 05:25:39;;;;;;;;;;;;;;;3.65;100.00;100691.50;5077466;28;20375;-70
2023/04/10 05:28:04;;;;;;;;;;;;;;;3.77;100.00;100693.00;5058386;28;20399;-67
2023/04/10 05:30:30;;;;;;;;;;;;;;;4.03;100.00;100695.94;5044501;28;19920;-69
2023/04/10 05:32:55;;;;;;;;;;;;;;;4.09;100.00;100687.31;5076154;28;20351;-68
2023/04/10 05:35:20;;;;;;;;;;;;;;;4.24;100.00;100691.28;5072490;28;19912;-68
2023/04/10 05:37:45;;;;;;;;;;;;;;;4.36;100.00;100687.69;5066550;28;20015;-70
2023/04/10 05:40:11;;;;;;;;;;;;;;;4.56;100.00;100699.19;5042952;28;19920;-69
2023/04/10 05:42:36;;;;;;;;;;;;;;;4.74;100.00;100700.53;5049359;28;19923;-69
2023/04/10 05:45:01;;;;;;;;;;;;;;;4.83;100.00;100692.69;5055863;28;20417;-70
2023/04/10 05:47:26;;;;;;;;;;;;;;;5.03;100.00;100692.25;5047538;28;20345;-71
2023/04/10 05:49:51;;;;;;;;;;;;;;;5.09;100.00;100696.41;5052996;28;19913;-69
2023/04/10 05:52:16;;;;;;;;;;;;;;;5.20;100.00;100688.47;5065310;28;20039;-69
2023/04/10 05:54:42;;;;;;;;;;;;;;;5.26;100.00;100686.66;5058274;28;19912;-70
2023/04/10 05:57:07;;;;;;;;;;;;;;;5.41;100.00;100690.56;5053174;28;19932;-70
2023/04/10 05:59:32;;;;;;;;;;;;;;;5.49;100.00;100690.38;5057457;28;19952;-70
2023/04/10 06:01:57;;;;;;;;;;;;;;;5.61;100.00;100695.19;5057248;28;19990;-71
2023/04/10 06:04:22;;;;;;;;;;;;;;;5.85;100.00;100702.28;5058924;28;20684;-70
2023/04/10 06:06:48;;;;;;;;;;;;;;;5.89;100.00;100702.16;5057078;28;19931;-70
2023/04/10 06:09:13;;;;;;;;;;;;;;;5.87;100.00;100696.25;5056214;28;19963;-70
2023/04/10 06:11:39;;;;;;;;;;;;;;;6.06;100.00;100693.25;5059722;28;20362;-70
2023/04/10 06:14:04;;;;;;;;;;;;;;;6.22;100.00;100688.56;5073546;28;19999;-70
2023/04/10 06:16:29;;;;;;;;;;;;;;;6.22;100.00;100678.34;5056737;28;20390;-70
2023/04/10 06:18:55;;;;;;;;;;;;;;;6.26;100.00;100675.69;5046703;28;19913;-70
2023/04/10 06:21:20;;;;;;;;;;;;;;;6.29;100.00;100684.97;5055799;28;19926;-70
2023/04/10 06:23:45;;;;;;;;;;;;;;;6.21;100.00;100687.72;5067340;28;19917;-70
2023/04/10 06:26:10;;;;;;;;;;;;;;;6.29;100.00;100683.25;5077636;28;19920;-70
2023/04/10 06:28:36;;;;;;;;;;;;;;;6.45;100.00;100691.34;5052185;28;20379;-69
2023/04/10 06:31:04;;;;;;;;;;;;;;;6.35;100.00;100686.50;5058451;28;20360;-70
2023/04/10 06:33:29;;;;;;;;;;;;;;;6.41;100.00;100691.44;5064246;28;20007;-71
2023/04/10 06:35:56;;;;;;;;;;;;;;;6.55;100.00;100691.06;5065479;28;20062;-70
2023/04/10 06:38:21;;;;;;;;;;;;;;;6.72;100.00;100677.81;5061436;28;20368;-69
2023/04/10 06:40:46;;;;;;;;;;;;;;;7.11;100.00;100680.88;5048414;28;19971;-70
2023/04/10 06:43:11;;;;;;;;;;;;;;;7.86;100.00;100684.47;5055982;28;19917;-70
2023/04/10 06:45:36;;;;;;;;;;;;;;;8.67;100.00;100679.94;5050680;28;19992;-71
2023/04/10 06:48:02;;;;;;;;;;;;;;;9.31;100.00;100686.03;5047401;28;19924;-70
2023/04/10 06:50:27;;;;;;;;;;;;;;;10.32;97.84;100680.13;5031628;28;19921;-70
2023/04/10 06:52:54;;;;;;;;;;;;;;;11.78;85.16;100679.34;5067979;28;20371;-71
2023/04/10 06:55:19;;;;;;;;;;;;;;;14.06;65.30;100674.69;5052239;28;21493;-72
2023/04/10 06:57:45;;;;;;;;;;;;;;;15.67;56.20;100667.19;5066903;28;20003;-73
2023/04/10 07:00:10;;;;;;;;;;;;;;;16.37;49.69;100670.28;5032836;28;19920;-73
2023/04/10 07:02:35;;;;;;;;;;;;;;;16.22;48.45;100669.59;5050263;28;19916;-73
2023/04/10 07:05:00;;;;;;;;;;;;;;;16.71;47.97;100667.91;5051446;28;20376;-73
2023/04/10 07:07:26;;;;;;;;;;;;;;;16.89;46.06;100661.41;5075439;28;20008;-72
2023/04/10 07:09:51;;;;;;;;;;;;;;;15.00;49.52;100671.50;5051683;28;19978;-73
2023/04/10 07:12:16;;;;;;;;;;;;;;;15.70;49.50;100669.56;5074094;28;19917;-72
2023/04/10 07:14:41;;;;;;;;;;;;;;;15.85;47.80;100669.50;5047658;28;20031;-74
2023/04/10 07:17:07;;;;;;;;;;;;;;;16.70;46.12;100664.47;5034657;28;19921;-72
2023/04/10 07:19:32;;;;;;;;;;;;;;;16.38;46.56;100670.16;5067536;28;20415;-74
2023/04/10 07:21:57;;;;;;;;;;;;;;;15.92;47.76;100671.56;5040634;28;20309;-73
2023/04/10 07:24:23;;;;;;;;;;;;;;;16.65;46.50;100660.56;5060871;28;19912;-73
2023/04/10 07:26:48;;;;;;;;;;;;;;;16.53;45.62;100664.84;5069994;28;20054;-72
2023/04/10 07:29:13;;;;;;;;;;;;;;;17.08;44.82;100665.28;5054882;28;19926;-72
2023/04/10 07:31:38;;;;;;;;;;;;;;;19.40;39.81;100664.78;5022068;28;19929;-71
2023/04/10 07:34:04;;;;;;;;;;;;;;;19.96;38.02;100661.84;5046953;28;19916;-71
2023/04/10 07:36:30;;;;;;;;;;;;;;;19.17;38.98;100667.53;5055591;28;20344;-72
2023/04/10 07:38:55;;;;;;;;;;;;;;;18.35;39.66;100667.00;5071609;28;20344;-71
2023/04/10 07:41:21;;;;;;;;;;;;;;;18.83;40.13;100670.25;5039275;28;19921;-71
2023/04/10 07:43:46;;;;;;;;;;;;;;;19.11;38.22;100668.03;5062785;28;19952;-73
2023/04/10 07:46:11;;;;;;;;;;;;;;;18.48;38.86;100668.66;5079291;28;19923;-72
2023/04/10 07:48:37;;;;;;;;;;;;;;;17.88;41.00;100672.31;5072744;28;20344;-72
2023/04/10 07:51:02;;;;;;;;;;;;;;;17.80;41.55;100666.03;5049153;28;19951;-71
2023/04/10 07:53:27;;;;;;;;;;;;;;;18.28;40.28;100662.41;5061322;28;20359;-70
2023/04/10 07:55:52;;;;;;;;;;;;;;;19.23;39.17;100661.81;5051524;28;20375;-72
2023/04/10 07:58:18;;;;;;;;;;;;;;;18.11;38.93;100661.97;5048365;28;20011;-70
2023/04/10 08:00:43;;;;;;;;;;;;;;;18.84;39.97;100653.63;5047432;28;20348;-70
2023/04/10 08:03:08;;;;;;;;;;;;;;;19.08;38.64;100655.25;5065246;28;19924;-70
2023/04/10 08:05:33;;;;;;;;;;;;;;;16.54;41.98;100650.94;5079033;28;19925;-70
2023/04/10 08:07:59;;;;;;;;;;;;;;;15.79;43.94;100652.59;5046648;28;19947;-69
2023/04/10 08:10:24;;;;;;;;;;;;;;;16.37;43.30;100645.16;5061117;28;19920;-71
2023/04/10 08:12:49;;;;;;;;;;;;;;;18.02;41.09;100647.88;5065568;28;20383;-71
2023/04/10 08:15:16;;;;;;;;;;;;;;;17.19;41.52;100646.28;5055652;28;19947;-72
2023/04/10 08:17:41;;;;;;;;;;;;;;;17.72;40.01;100644.06;5050251;28;20364;-71
2023/04/10 08:20:06;;;;;;;;;;;;;;;17.67;39.56;100642.75;5043332;28;19916;-71
2023/04/10 08:22:32;;;;;;;;;;;;;;;19.24;38.33;100640.00;5048343;28;19928;-70
2023/04/10 08:24:57;;;;;;;;;;;;;;;18.74;37.98;100643.13;5054302;28;19909;-70
2023/04/10 08:27:22;;;;;;;;;;;;;;;19.25;37.28;100648.63;5036394;28;20079;-69
2023/04/10 08:29:47;;;;;;;;;;;;;;;19.30;37.99;100638.63;5069742;28;19915;-70
2023/04/10 08:32:12;;;;;;;;;;;;;;;21.14;36.19;100640.31;5027976;28;19916;-70
2023/04/10 08:34:37;;;;;;;;;;;;;;;19.97;36.36;100633.94;5051878;28;20062;-71
2023/04/10 08:37:08;;;;;;;;;;;;;;;20.45;35.67;100629.81;5055166;28;19970;-71
2023/04/10 08:39:36;;;;;;;;;;;;;;;19.50;37.22;100632.59;5049087;28;19939;-71
2023/04/10 08:42:01;;;;;;;;;;;;;;;18.01;41.10;100638.41;5047354;28;19920;-71
2023/04/10 08:44:26;;;;;;;;;;;;;;;19.95;38.50;100626.22;5061494;28;20315;-71
2023/04/10 08:46:52;;;;;;;;;;;;;;;19.93;36.93;100620.34;5084186;28;20003;-72
2023/04/10 08:49:23;;;;;;;;;;;;;;;19.58;37.52;100618.09;5062329;28;19995;-71
2023/04/10 08:51:54;;;;;;;;;;;;;;;19.71;38.55;100610.03;5049415;28;19975;-71
2023/04/10 08:54:34;;;;;;;;;;;;;;;17.84;39.40;100612.84;5063703;28;19943;-71
2023/04/10 08:57:00;;;;;;;;;;;;;;;17.39;41.62;100603.19;5068200;28;19947;-70
2023/04/10 08:59:29;;;;;;;;;;;;;;;18.02;40.08;100592.38;5070359;28;20348;-70
2023/04/10 09:01:55;;;;;;;;;;;;;;;19.08;38.32;100587.47;5065763;28;20019;-71
2023/04/10 09:04:21;;;;;;;;;;;;;;;19.03;37.87;100587.84;5049610;28;19916;-71
2023/04/10 09:06:46;;;;;;;;;;;;;;;19.14;37.45;100582.56;5049334;28;19916;-71
2023/04/10 09:09:11;;;;;;;;;;;;;;;19.19;37.42;100587.41;5047082;28;19924;-68
2023/04/10 09:11:55;;;;;;;;;;;;;;;20.86;35.32;100583.47;5050783;28;21175;-69
2023/04/10 09:14:21;;;;;;;;;;;;;;;21.27;34.94;100584.13;5064480;28;20046;-70
2023/04/10 09:16:46;;;;;;;;;;;;;;;21.53;32.93;100591.34;5051069;28;20025;-69
2023/04/10 09:19:11;;;;;;;;;;;;;;;20.14;35.44;100583.69;5051943;28;19916;-71
2023/04/10 09:21:36;;;;;;;;;;;;;;;20.09;34.51;100579.81;5045703;28;20288;-69
2023/04/10 09:24:01;;;;;;;;;;;;;;;19.48;35.55;100581.50;5059917;28;19916;-69
2023/04/10 09:26:28;;;;;;;;;;;;;;;18.11;37.89;100570.84;5051977;28;20332;-68
2023/04/10 09:28:57;;;;;;;;;;;;;;;18.67;37.78;100564.63;5075852;28;20008;-70
2023/04/10 09:31:30;;;;;;;;;;;;;;;17.61;39.29;100559.97;5047947;28;19924;-70
2023/04/10 09:34:11;;;;;;;;;;;;;;;17.74;39.09;100545.88;5053711;28;19917;-71
2023/04/10 09:36:36;;;;;;;;;;;;;;;17.86;39.13;100557.13;5039648;28;20034;-71
2023/04/10 09:39:02;;;;;;;;;;;;;;;18.51;39.17;100543.38;5048457;28;19970;-71
2023/04/10 09:41:27;;;;;;;;;;;;;;;18.69;37.64;100538.44;5053940;28;20388;-71
2023/04/10 09:44:04;;;;;;;;;;;;;;;19.29;38.70;100541.31;5048662;28;20007;-71
2023/04/10 09:46:30;;;;;;;;;;;;;;;20.30;35.34;100541.38;5047995;28;19994;-75
2023/04/10 09:48:55;;;;;;;;;;;;;;;20.53;35.64;100535.03;5059517;28;20452;-72
2023/04/10 09:51:29;;;;;;;;;;;;;;;21.75;33.46;100529.13;5056404;28;19928;-72
2023/04/10 09:53:54;;;;;;;;;;;;;;;20.72;35.11;100527.22;5062716;28;19923;-71
2023/04/10 09:56:21;;;;;;;;;;;;;;;21.26;33.67;100522.28;5064090;28;19912;-71
2023/04/10 09:58:47;;;;;;;;;;;;;;;21.39;33.41;100519.34;5063953;28;20425;-71
2023/04/10 10:01:13;;;;;;;;;;;;;;;22.98;32.94;100523.34;5062971;28;19953;-71
2023/04/10 10:03:38;;;;;;;;;;;;;;;21.39;32.57;100519.34;5070851;28;19917;-71
2023/04/10 10:06:04;;;;;;;;;;;;;;;22.11;32.30;100504.78;5063041;28;19913;-72
2023/04/10 10:08:31;;;;;;;;;;;;;;;23.64;32.47;100507.94;5064138;28;19920;-64
2023/04/10 10:10:57;;;;;;;;;;;;;;;23.67;30.25;100507.63;5051160;28;19938;-64
2023/04/10 10:13:27;;;;;;;;;;;;;;;23.63;30.28;100503.66;5068137;28;19973;-65
2023/04/10 10:16:11;;;;;;;;;;;;;;;23.92;29.03;100500.66;5052177;28;19935;-65
2023/04/10 10:18:44;;;;;;;;;;;;;;;22.58;30.72;100501.13;5058736;28;20287;-63
2023/04/10 10:21:09;;;;;;;;;;;;;;;22.84;30.14;100491.47;5056972;28;20391;-65
2023/04/10 10:23:35;;;;;;;;;;;;;;;21.09;31.79;100487.22;5063484;28;19920;-70
2023/04/10 10:26:03;;;;;;;;;;;;;;;19.60;33.83;100480.50;5056397;28;20213;-69
2023/04/10 10:28:30;;;;;;;;;;;;;;;20.93;33.07;100482.59;5048909;28;19924;-69
2023/04/10 10:30:55;;;;;;;;;;;;;;;20.75;32.96;100482.53;5047324;28;19924;-70
2023/04/10 10:33:23;;;;;;;;;;;;;;;21.23;33.52;100477.28;5059220;28;20390;-69
2023/04/10 10:35:49;;;;;;;;;;;;;;;19.49;34.67;100474.41;5051286;28;19920;-71
2023/04/10 10:38:14;;;;;;;;;;;;;;;20.21;35.58;100473.47;5051121;28;19985;-71
2023/04/10 10:40:44;;;;;;;;;;;;;;;19.85;34.68;100463.53;5045589;28;19932;-71
2023/04/10 10:43:23;;;;;;;;;;;;;;;18.20;36.56;100457.34;5066473;28;19923;-66
2023/04/10 10:45:51;;;;;;;;;;;;;;;17.31;38.68;100457.38;5046531;28;19912;-67
2023/04/10 10:48:16;;;;;;;;;;;;;;;17.12;40.03;100455.34;5042330;28;19993;-69
2023/04/10 10:50:56;;;;;;;;;;;;;;;16.63;40.57;100450.28;5055351;28;19921;-70
2023/04/10 10:53:30;;;;;;;;;;;;;;;17.03;40.99;100442.13;5049095;28;19913;-69
2023/04/10 10:55:55;;;;;;;;;;;;;;;16.61;40.22;100442.59;5051413;28;19917;-69
2023/04/10 10:58:40;;;;;;;;;;;;;;;16.24;40.22;100424.56;5050727;28;19919;-72
2023/04/10 11:01:06;;;;;;;;;;;;;;;16.24;40.86;100429.75;5030967;28;20067;-71
2023/04/10 11:03:31;;;;;;;;;;;;;;;16.44;41.23;100419.66;5058538;28;20346;-72
2023/04/10 11:05:57;;;;;;;;;;;;;;;16.24;42.08;100406.38;5049843;28;20343;-72
2023/04/10 11:08:34;;;;;;;;;;;;;;;16.44;42.81;100404.09;5053535;28;19913;-72
2023/04/10 11:11:10;;;;;;;;;;;;;;;16.78;41.98;100401.53;5061876;28;19935;-68
2023/04/10 11:13:37;;;;;;;;;;;;;;;16.70;41.32;100399.53;5065759;28;19958;-65
2023/04/10 11:16:03;;;;;;;;;;;;;;;16.90;39.33;100399.78;5059555;28;20006;-66
2023/04/10 11:18:44;;;;;;;;;;;;;;;16.94;39.53;100390.84;5067629;28;19912;-66
2023/04/10 11:21:09;;;;;;;;;;;;;;;17.06;38.98;100391.69;5058871;28;20390;-66
2023/04/10 11:23:35;;;;;;;;;;;;;;;16.65;38.31;100391.25;5067410;28;19916;-72
2023/04/10 11:26:00;;;;;;;;;;;;;;;16.40;39.22;100393.09;5051199;28;20335;-72
2023/04/10 11:28:32;;;;;;;;;;;;;;;16.28;37.35;100399.19;5050050;28;20407;-73
2023/04/10 11:31:18;;;;;;;;;;;;;;;16.55;37.36;100398.09;5029557;28;19971;-73
2023/04/10 11:33:44;;;;;;;;;;;;;;;16.69;37.29;100400.47;5060724;28;20350;-74
2023/04/10 11:36:12;;;;;;;;;;;;;;;16.56;37.10;100397.13;5051584;28;19913;-69
2023/04/10 11:38:37;;;;;;;;;;;;;;;16.45;37.32;100388.38;5054797;28;19920;-69
2023/04/10 11:41:04;;;;;;;;;;;;;;;16.61;38.36;100385.47;5050824;28;19920;-71
2023/04/10 11:43:30;;;;;;;;;;;;;;;16.46;38.58;100384.03;5064137;28;20042;-70
2023/04/10 11:46:02;;;;;;;;;;;;;;;16.67;37.74;100367.75;5062525;28;20373;-70
2023/04/10 11:48:28;;;;;;;;;;;;;;;17.36;36.97;100364.22;5063686;28;20367;-70
2023/04/10 11:50:53;;;;;;;;;;;;;;;17.65;37.23;100368.88;5056845;28;19924;-69
2023/04/10 11:53:20;;;;;;;;;;;;;;;17.66;35.98;100366.19;5072720;28;20762;-70
2023/04/10 11:55:46;;;;;;;;;;;;;;;17.17;36.74;100360.47;5062622;28;19924;-69
2023/04/10 11:58:27;;;;;;;;;;;;;;;17.01;36.62;100358.25;5065281;28;20307;-70
2023/04/10 12:00:56;;;;;;;;;;;;;;;16.73;35.79;100347.38;5057045;28;19916;-70
2023/04/10 12:03:38;;;;;;;;;;;;;;;16.89;37.26;100351.38;5063562;28;19919;-70
2023/04/10 12:06:05;;;;;;;;;;;;;;;16.70;36.84;100341.56;5062869;28;19921;-70
2023/04/10 12:08:34;;;;;;;;;;;;;;;16.69;37.09;100343.31;5061757;28;20396;-70
2023/04/10 12:11:00;;;;;;;;;;;;;;;16.71;37.91;100332.84;5053515;28;19920;-70
2023/04/10 12:13:26;;;;;;;;;;;;;;;16.51;37.32;100336.94;5061986;28;19913;-69
2023/04/10 12:15:52;;;;;;;;;;;;;;;16.59;38.63;100327.63;5063124;28;20007;-70
2023/04/10 12:18:18;;;;;;;;;;;;;;;16.83;37.78;100334.50;5060932;28;19995;-70
2023/04/10 12:20:43;;;;;;;;;;;;;;;17.02;37.40;100333.09;5057874;28;19978;-69
2023/04/10 12:23:09;;;;;;;;;;;;;;;16.93;36.73;100326.81;5063473;28;19921;-69
2023/04/10 12:25:35;;;;;;;;;;;;;;;16.78;37.51;100326.22;5058009;28;19916;-68
2023/04/10 12:28:00;;;;;;;;;;;;;;;16.60;37.76;100315.47;5062620;28;19920;-69
2023/04/10 12:30:25;;;;;;;;;;;;;;;16.65;38.72;100312.53;5054963;28;19955;-69
2023/04/10 12:32:52;;;;;;;;;;;;;;;16.74;38.59;100304.03;5075249;28;20714;-69